Time;durP1;ratioP1;P1;durP2;ratioP2;P2;SDS_P1;SDS_P2;PMS_P1;PMS_P2;Temp;Humidity;BMP_temperature;BMP_pressure;BME280_temperature;BME280_humidity;BME280_pressure;Samples;Min_cycle;Max_cycle;Signal;HPM_P1;HPM_P2
2021/07/23 00:00:00;;;;;;;;;;;;;;;20.75;71.39;100410.09;1697162;82;20334;-79
2021/07/23 00:02:26;;;;;;;;;;;;;;;20.79;71.50;100414.00;1694985;83;21254;-81
2021/07/23 00:04:52;;;;;;;;;;;;;;;20.76;71.12;100409.06;1705382;83;20465;-79
2021/07/23 00:07:17;;;;;;;;;;;;;;;20.76;71.55;100410.94;1705667;83;20203;-79
2021/07/23 00:09:43;;;;;;;;;;;;;;;20.84;71.25;100405.30;1693586;83;21178;-79
2021/07/23 00:12:09;;;;;;;;;;;;;;;20.84;71.52;100411.20;1705547;83;20127;-78
2021/07/23 00:14:34;;;;;;;;;;;;;;;20.78;71.76;100415.03;1694116;83;21115;-82
2021/07/23 00:17:00;;;;;;;;;;;;;;;20.64;72.29;100408.09;1712762;83;20253;-83
2021/07/23 00:19:25;;;;;;;;;;;;;;;20.70;72.05;100409.94;1709719;82;20134;-79
2021/07/23 00:21:53;;;;;;;;;;;;;;;20.72;71.86;100407.84;1702743;82;20158;-89
2021/07/23 00:24:18;;;;;;;;;;;;;;;20.72;72.05;100407.84;1694074;82;20180;-81
2021/07/23 00:26:52;;;;;;;;;;;;;;;20.73;72.10;100405.48;1698679;83;21076;-89
2021/07/23 00:29:19;;;;;;;;;;;;;;;20.76;71.90;100414.44;1685241;82;20434;-85
2021/07/23 00:31:44;;;;;;;;;;;;;;;20.75;72.09;100407.41;1697833;83;20622;-80
2021/07/23 00:34:10;;;;;;;;;;;;;;;20.73;72.01;100406.00;1707731;82;20168;-83
2021/07/23 00:36:37;;;;;;;;;;;;;;;20.59;72.53;100408.73;1699488;82;20154;-80
2021/07/23 00:39:02;;;;;;;;;;;;;;;20.60;72.61;100406.86;1697469;82;20427;-80
2021/07/23 00:41:28;;;;;;;;;;;;;;;20.63;72.49;100412.64;1703839;82;20141;-80
2021/07/23 00:43:53;;;;;;;;;;;;;;;20.50;72.65;100407.34;1702966;82;20232;-81
2021/07/23 00:46:21;;;;;;;;;;;;;;;20.44;72.99;100411.70;1700285;82;20813;-81
2021/07/23 00:48:47;;;;;;;;;;;;;;;20.35;73.21;100407.62;1693019;82;20248;-80
2021/07/23 00:51:12;;;;;;;;;;;;;;;20.34;73.42;100411.36;1689417;83;21306;-85
2021/07/23 00:53:38;;;;;;;;;;;;;;;20.23;73.76;100406.67;1699812;82;20139;-80
2021/07/23 00:56:04;;;;;;;;;;;;;;;20.31;73.52;100409.63;1704215;83;20190;-82
2021/07/23 00:58:30;;;;;;;;;;;;;;;20.32;73.34;100405.36;1698906;83;20179;-82
2021/07/23 01:00:58;;;;;;;;;;;;;;;20.31;73.05;100401.05;1703768;83;20189;-82
2021/07/23 01:03:24;;;;;;;;;;;;;;;20.31;73.33;100407.77;1708317;82;21303;-82
2021/07/23 01:05:51;;;;;;;;;;;;;;;20.31;73.34;100400.24;1695836;83;20208;-84
2021/07/23 01:08:18;;;;;;;;;;;;;;;20.33;73.31;100396.29;1688686;83;20203;-81
2021/07/23 01:10:46;;;;;;;;;;;;;;;20.35;73.23;100398.23;1694238;82;20437;-80
2021/07/23 01:13:12;;;;;;;;;;;;;;;20.39;73.09;100400.80;1679146;83;20172;-83
2021/07/23 01:15:40;;;;;;;;;;;;;;;20.32;73.14;100400.00;1670678;83;21092;-82
2021/07/23 01:18:06;;;;;;;;;;;;;;;20.37;73.13;100400.70;1700440;82;20536;-81
2021/07/23 01:20:32;;;;;;;;;;;;;;;20.20;73.49;100403.08;1700382;82;20143;-80
2021/07/23 01:22:59;;;;;;;;;;;;;;;20.17;73.98;100393.59;1699000;82;20674;-80
2021/07/23 01:25:25;;;;;;;;;;;;;;;20.19;73.68;100398.74;1704314;83;20202;-80
2021/07/23 01:27:51;;;;;;;;;;;;;;;20.19;73.79;100400.89;1703953;82;21087;-79
2021/07/23 01:30:20;;;;;;;;;;;;;;;20.20;73.81;100404.42;1710229;82;20221;-79
2021/07/23 01:32:46;;;;;;;;;;;;;;;20.03;74.60;100399.53;1697798;82;20156;-78
2021/07/23 01:35:13;;;;;;;;;;;;;;;19.94;75.31;100400.80;1704615;83;20456;-80
2021/07/23 01:37:40;;;;;;;;;;;;;;;19.96;74.98;100398.72;1701007;83;20184;-79
2021/07/23 01:40:07;;;;;;;;;;;;;;;19.93;75.25;100406.37;1704939;82;21872;-80
2021/07/23 01:42:35;;;;;;;;;;;;;;;19.84;75.62;100399.07;1700505;82;20155;-79
2021/07/23 01:45:00;;;;;;;;;;;;;;;19.76;75.89;100397.94;1688680;82;20181;-81
2021/07/23 01:47:26;;;;;;;;;;;;;;;19.83;75.72;100390.75;1696418;83;20168;-78
2021/07/23 01:49:52;;;;;;;;;;;;;;;19.81;75.73;100390.11;1705778;83;20122;-79
2021/07/23 01:52:17;;;;;;;;;;;;;;;19.89;75.43;100391.24;1702040;83;22352;-78
2021/07/23 01:54:43;;;;;;;;;;;;;;;19.82;75.52;100387.75;1698599;83;20152;-81
2021/07/23 01:57:08;;;;;;;;;;;;;;;19.86;75.52;100382.28;1697394;83;20610;-80
2021/07/23 01:59:38;;;;;;;;;;;;;;;19.82;75.57;100389.09;1691355;82;20135;-78
2021/07/23 02:02:03;;;;;;;;;;;;;;;19.82;75.79;100381.05;1697257;83;20319;-79
2021/07/23 02:04:30;;;;;;;;;;;;;;;19.83;75.73;100383.52;1699736;82;21082;-78
2021/07/23 02:06:57;;;;;;;;;;;;;;;19.83;75.80;100385.39;1704721;82;20114;-79
2021/07/23 02:09:22;;;;;;;;;;;;;;;19.81;76.03;100380.23;1700068;83;20212;-84
2021/07/23 02:11:48;;;;;;;;;;;;;;;19.93;75.74;100380.38;1696004;82;20827;-78
2021/07/23 02:14:13;;;;;;;;;;;;;;;20.04;74.93;100375.72;1704364;82;20161;-78
2021/07/23 02:16:41;;;;;;;;;;;;;;;20.01;75.03;100379.32;1688214;83;21009;-80
2021/07/23 02:19:08;;;;;;;;;;;;;;;19.94;75.51;100379.36;1705323;83;20216;-79
2021/07/23 02:21:37;;;;;;;;;;;;;;;19.99;75.14;100376.85;1701435;83;20139;-80
2021/07/23 02:24:04;;;;;;;;;;;;;;;19.95;75.38;100367.61;1701347;82;20130;-80
2021/07/23 02:26:29;;;;;;;;;;;;;;;19.99;75.40;100366.13;1699861;82;20193;-82
2021/07/23 02:28:57;;;;;;;;;;;;;;;20.06;75.10;100369.61;1684237;83;21024;-78
2021/07/23 02:31:22;;;;;;;;;;;;;;;20.04;74.92;100373.03;1688064;83;20182;-82
2021/07/23 02:33:48;;;;;;;;;;;;;;;20.04;75.10;100377.06;1701564;82;20591;-83
2021/07/23 02:36:15;;;;;;;;;;;;;;;20.03;75.23;100371.38;1693543;82;20158;-79
2021/07/23 02:38:41;;;;;;;;;;;;;;;20.01;75.30;100369.94;1700085;82;20201;-79
2021/07/23 02:41:06;;;;;;;;;;;;;;;19.99;75.43;100368.81;1694446;83;21241;-83
2021/07/23 02:43:34;;;;;;;;;;;;;;;19.95;75.71;100372.97;1698040;82;20154;-79
2021/07/23 02:46:01;;;;;;;;;;;;;;;19.87;75.93;100371.84;1697152;82;20162;-89
2021/07/23 02:48:28;;;;;;;;;;;;;;;19.84;75.98;100374.95;1700538;82;21147;-79
2021/07/23 02:50:54;;;;;;;;;;;;;;;19.87;75.93;100366.48;1698612;83;20174;-83
2021/07/23 02:53:20;;;;;;;;;;;;;;;19.88;76.06;100366.80;1668457;83;21172;-79
2021/07/23 02:55:45;;;;;;;;;;;;;;;19.87;76.14;100373.19;1700268;82;20273;-79
2021/07/23 02:58:11;;;;;;;;;;;;;;;19.85;75.89;100368.56;1691128;83;20226;-80
2021/07/23 03:00:37;;;;;;;;;;;;;;;19.85;75.86;100367.23;1698444;82;20131;-79
2021/07/23 03:03:05;;;;;;;;;;;;;;;19.86;76.05;100369.70;1683055;83;20144;-80
2021/07/23 03:05:32;;;;;;;;;;;;;;;19.89;75.92;100371.95;1706955;83;21056;-91
2021/07/23 03:07:59;;;;;;;;;;;;;;;19.94;75.79;100373.99;1699792;82;20536;-86
2021/07/23 03:10:24;;;;;;;;;;;;;;;19.98;75.57;100369.87;1695727;83;20265;-93
2021/07/23 03:12:50;;;;;;;;;;;;;;;19.94;75.61;100363.27;1710676;82;20154;-83
2021/07/23 03:15:17;;;;;;;;;;;;;;;19.97;75.58;100364.19;1696567;83;20198;-79
2021/07/23 03:17:43;;;;;;;;;;;;;;;19.88;75.83;100365.46;1689948;83;21157;-81
2021/07/23 03:20:10;;;;;;;;;;;;;;;19.86;75.83;100368.88;1696091;82;20201;-81
2021/07/23 03:22:37;;;;;;;;;;;;;;;19.74;76.49;100362.78;1699229;83;20446;-81
2021/07/23 03:25:03;;;;;;;;;;;;;;;19.63;77.09;100372.83;1684628;84;20171;-82
2021/07/23 03:27:30;;;;;;;;;;;;;;;19.83;76.53;100366.63;1716033;82;20393;-81
2021/07/23 03:29:55;;;;;;;;;;;;;;;19.77;76.72;100362.92;1707724;82;21136;-82
2021/07/23 03:32:24;;;;;;;;;;;;;;;19.74;76.64;100366.80;1704941;82;20654;-80
2021/07/23 03:34:50;;;;;;;;;;;;;;;19.81;76.50;100363.31;1712669;82;20099;-81
2021/07/23 03:37:16;;;;;;;;;;;;;;;19.84;75.71;100366.41;1709907;82;20209;-80
2021/07/23 03:39:43;;;;;;;;;;;;;;;19.84;76.09;100360.21;1716079;82;20118;-81
2021/07/23 03:42:09;;;;;;;;;;;;;;;19.85;75.86;100351.15;1691391;82;21061;-89
2021/07/23 03:44:34;;;;;;;;;;;;;;;19.88;75.34;100365.46;1672273;82;20442;-80
2021/07/23 03:47:00;;;;;;;;;;;;;;;19.82;75.48;100362.29;1697672;82;20197;-83
2021/07/23 03:49:26;;;;;;;;;;;;;;;19.89;75.43;100364.44;1700417;82;20178;-81
2021/07/23 03:51:52;;;;;;;;;;;;;;;19.79;76.09;100356.83;1702303;82;20229;-81
2021/07/23 03:54:18;;;;;;;;;;;;;;;19.80;76.05;100357.67;1715395;82;21102;-80
2021/07/23 03:56:44;;;;;;;;;;;;;;;19.79;76.21;100357.35;1707400;82;20191;-80
2021/07/23 03:59:10;;;;;;;;;;;;;;;19.77;76.19;100356.75;1712336;83;20212;-81
2021/07/23 04:01:35;;;;;;;;;;;;;;;19.70;76.33;100360.74;1716780;82;20138;-84
2021/07/23 04:04:01;;;;;;;;;;;;;;;19.78;75.99;100357.03;1713803;82;20159;-80
2021/07/23 04:06:28;;;;;;;;;;;;;;;19.72;75.94;100358.16;1706816;82;21238;-81
2021/07/23 04:08:55;;;;;;;;;;;;;;;19.79;75.86;100354.67;1700818;82;20242;-85
2021/07/23 04:11:34;;;;;;;;;;;;;;;19.85;75.62;100350.62;1699578;82;20122;-79
2021/07/23 04:13:53;;;;;;;;;;;;;;;19.91;75.37;100361.02;1706864;82;20170;-83
2021/07/23 04:16:20;;;;;;;;;;;;;;;19.96;75.16;100359.85;1707080;82;20122;-82
2021/07/23 04:18:46;;;;;;;;;;;;;;;19.95;75.26;100359.57;1671388;82;20157;-80
2021/07/23 04:21:11;;;;;;;;;;;;;;;19.91;75.71;100358.34;1718014;82;20190;-87
2021/07/23 04:23:37;;;;;;;;;;;;;;;19.83;76.18;100369.30;1702077;82;20145;-81
2021/07/23 04:26:04;;;;;;;;;;;;;;;19.94;76.12;100357.91;1702103;82;20204;-83
2021/07/23 04:28:30;;;;;;;;;;;;;;;19.83;76.12;100355.91;1704797;82;20130;-80
2021/07/23 04:30:55;;;;;;;;;;;;;;;19.90;76.29;100349.48;1707141;82;21832;-85
2021/07/23 04:33:21;;;;;;;;;;;;;;;19.91;75.74;100351.11;1709775;82;20135;-82
2021/07/23 04:35:46;;;;;;;;;;;;;;;19.93;75.89;100350.08;1714631;82;20459;-83
2021/07/23 04:38:12;;;;;;;;;;;;;;;19.94;75.77;100352.55;1708410;82;20146;-85
2021/07/23 04:40:39;;;;;;;;;;;;;;;19.87;75.93;100351.25;1694154;83;20155;-80
2021/07/23 04:43:04;;;;;;;;;;;;;;;20.00;75.38;100349.55;1714826;82;21813;-80
2021/07/23 04:45:30;;;;;;;;;;;;;;;19.92;75.69;100347.93;1707474;82;20216;-81
2021/07/23 04:47:55;;;;;;;;;;;;;;;20.03;75.05;100345.91;1706358;82;20467;-83
2021/07/23 04:50:22;;;;;;;;;;;;;;;20.12;74.91;100344.31;1717579;82;20255;-88
2021/07/23 04:52:50;;;;;;;;;;;;;;;20.13;74.80;100341.95;1684342;83;20197;-81
2021/07/23 04:55:15;;;;;;;;;;;;;;;20.11;74.83;100346.71;1715203;82;21183;-81
2021/07/23 04:57:44;;;;;;;;;;;;;;;20.05;75.39;100345.70;1701010;82;20751;-79
2021/07/23 05:00:11;;;;;;;;;;;;;;;20.12;75.44;100338.95;1700552;82;20171;-81
2021/07/23 05:02:41;;;;;;;;;;;;;;;20.13;75.30;100344.63;1704774;83;20705;-80
2021/07/23 05:05:08;;;;;;;;;;;;;;;20.14;75.31;100340.92;1712062;82;20482;-84
2021/07/23 05:07:33;;;;;;;;;;;;;;;20.17;75.08;100337.81;1709422;82;21255;-76
2021/07/23 05:10:02;;;;;;;;;;;;;;;20.19;74.90;100337.88;1706391;82;20139;-79
2021/07/23 05:12:30;;;;;;;;;;;;;;;20.27;74.86;100334.12;1713297;82;20975;-79
2021/07/23 05:14:55;;;;;;;;;;;;;;;20.26;75.17;100336.52;1709397;82;20142;-80
2021/07/23 05:17:23;;;;;;;;;;;;;;;20.31;74.70;100338.03;1719032;82;20931;-82
2021/07/23 05:19:48;;;;;;;;;;;;;;;20.33;74.46;100342.65;1709707;82;20580;-78
2021/07/23 05:22:15;;;;;;;;;;;;;;;20.39;74.67;100341.78;1714701;82;21308;-77
2021/07/23 05:24:41;;;;;;;;;;;;;;;20.38;74.80;100346.84;1709722;82;20339;-80
2021/07/23 05:27:07;;;;;;;;;;;;;;;20.45;74.82;100337.42;1711907;82;20138;-80
2021/07/23 05:29:32;;;;;;;;;;;;;;;20.44;74.14;100341.95;1709546;83;20174;-81
2021/07/23 05:31:59;;;;;;;;;;;;;;;20.52;74.50;100342.73;1718859;82;21843;-79
2021/07/23 05:34:26;;;;;;;;;;;;;;;20.61;74.32;100344.12;1705555;82;20523;-76
2021/07/23 05:36:56;;;;;;;;;;;;;;;20.63;74.49;100350.08;1713043;82;20179;-79
2021/07/23 05:39:21;;;;;;;;;;;;;;;20.74;74.25;100342.72;1714826;82;20257;-79
2021/07/23 05:41:49;;;;;;;;;;;;;;;20.74;73.62;100337.85;1700297;82;20203;-80
2021/07/23 05:44:14;;;;;;;;;;;;;;;20.74;73.73;100342.72;1710238;82;20445;-79
2021/07/23 05:46:41;;;;;;;;;;;;;;;20.77;73.63;100343.62;1707956;82;20180;-82
2021/07/23 05:49:07;;;;;;;;;;;;;;;20.82;73.37;100343.47;1708642;82;20174;-79
2021/07/23 05:51:34;;;;;;;;;;;;;;;20.82;73.07;100341.63;1679568;82;20619;-82
2021/07/23 05:54:00;;;;;;;;;;;;;;;20.87;73.16;100340.97;1715626;82;20459;-79
2021/07/23 05:56:29;;;;;;;;;;;;;;;20.94;72.50;100341.22;1707168;82;21848;-80
2021/07/23 05:58:55;;;;;;;;;;;;;;;21.01;72.58;100332.28;1710967;82;20210;-78
2021/07/23 06:01:22;;;;;;;;;;;;;;;21.10;72.02;100334.95;1711039;82;20146;-84
2021/07/23 06:03:48;;;;;;;;;;;;;;;21.22;71.75;100339.09;1703132;82;20188;-80
2021/07/23 06:06:17;;;;;;;;;;;;;;;21.24;71.53;100340.52;1707925;82;20131;-79
2021/07/23 06:08:42;;;;;;;;;;;;;;;21.32;71.39;100339.41;1705903;82;21140;-80
2021/07/23 06:11:08;;;;;;;;;;;;;;;21.33;71.35;100339.19;1703611;82;20143;-84
2021/07/23 06:13:37;;;;;;;;;;;;;;;21.48;70.94;100334.77;1706066;82;21397;-81
2021/07/23 06:16:05;;;;;;;;;;;;;;;21.54;70.61;100339.81;1710854;82;20144;-78
2021/07/23 06:18:31;;;;;;;;;;;;;;;21.61;70.31;100337.04;1710032;82;20215;-80
2021/07/23 06:20:58;;;;;;;;;;;;;;;21.61;70.22;100342.41;1718999;82;21774;-81
2021/07/23 06:23:25;;;;;;;;;;;;;;;21.69;70.65;100336.76;1704718;82;20154;-78
2021/07/23 06:25:51;;;;;;;;;;;;;;;21.66;70.90;100337.21;1706989;82;20446;-78
2021/07/23 06:28:17;;;;;;;;;;;;;;;21.67;69.53;100340.17;1714633;82;20150;-82
2021/07/23 06:30:45;;;;;;;;;;;;;;;21.71;69.96;100342.72;1706929;83;20260;-80
2021/07/23 06:33:11;;;;;;;;;;;;;;;21.87;70.07;100335.90;1708545;82;20185;-83
2021/07/23 06:35:39;;;;;;;;;;;;;;;21.81;70.29;100344.88;1707446;82;20201;-79
2021/07/23 06:38:05;;;;;;;;;;;;;;;21.74;70.11;100346.84;1673356;83;20251;-83
2021/07/23 06:40:30;;;;;;;;;;;;;;;21.82;70.20;100337.92;1714790;82;21380;-78
2021/07/23 06:42:56;;;;;;;;;;;;;;;21.96;69.95;100340.45;1712902;82;20115;-80
2021/07/23 06:45:23;;;;;;;;;;;;;;;21.81;70.28;100338.15;1717288;82;21105;-82
2021/07/23 06:47:48;;;;;;;;;;;;;;;21.76;70.89;100348.23;1704415;82;20234;-79
2021/07/23 06:50:14;;;;;;;;;;;;;;;21.88;70.12;100346.43;1715491;82;20141;-77
2021/07/23 06:52:40;;;;;;;;;;;;;;;21.93;69.79;100339.56;1709939;82;20672;-80
2021/07/23 06:55:06;;;;;;;;;;;;;;;21.96;69.46;100339.11;1715653;82;20158;-79
2021/07/23 06:57:34;;;;;;;;;;;;;;;22.09;69.21;100338.91;1702987;82;21104;-78
2021/07/23 06:59:59;;;;;;;;;;;;;;;22.20;68.71;100339.50;1706271;82;20187;-78
2021/07/23 07:02:24;;;;;;;;;;;;;;;22.16;68.43;100341.53;1704500;82;20795;-79
2021/07/23 07:04:50;;;;;;;;;;;;;;;22.09;67.32;100339.45;1712241;82;20149;-78
2021/07/23 07:07:16;;;;;;;;;;;;;;;22.28;67.61;100337.02;1718540;83;20268;-82
2021/07/23 07:09:45;;;;;;;;;;;;;;;22.41;67.01;100338.72;1688781;82;21796;-80
2021/07/23 07:12:10;;;;;;;;;;;;;;;22.52;66.12;100335.77;1714974;82;20538;-78
2021/07/23 07:14:36;;;;;;;;;;;;;;;22.58;65.91;100334.30;1712412;82;20126;-78
2021/07/23 07:17:03;;;;;;;;;;;;;;;22.76;65.33;100339.30;1717251;82;20345;-80
2021/07/23 07:19:29;;;;;;;;;;;;;;;22.77;63.91;100336.91;1701248;82;20249;-78
2021/07/23 07:21:54;;;;;;;;;;;;;;;22.73;64.47;100345.14;1708466;82;21087;-79
2021/07/23 07:24:20;;;;;;;;;;;;;;;22.82;64.76;100337.02;1703416;82;20211;-82
2021/07/23 07:26:47;;;;;;;;;;;;;;;22.87;64.35;100341.20;1702773;82;20716;-79
2021/07/23 07:29:13;;;;;;;;;;;;;;;22.79;62.95;100341.52;1708475;82;20198;-81
2021/07/23 07:31:40;;;;;;;;;;;;;;;22.92;62.32;100345.36;1711337;82;20154;-79
2021/07/23 07:34:06;;;;;;;;;;;;;;;23.00;62.51;100332.61;1701687;82;20995;-79
2021/07/23 07:36:33;;;;;;;;;;;;;;;23.11;62.94;100335.84;1701386;82;20287;-78
2021/07/23 07:38:59;;;;;;;;;;;;;;;23.12;63.88;100336.15;1709181;82;20179;-83
2021/07/23 07:41:26;;;;;;;;;;;;;;;23.28;63.74;100342.16;1715316;82;20154;-78
2021/07/23 07:43:51;;;;;;;;;;;;;;;23.14;61.73;100335.91;1709240;82;20607;-77
2021/07/23 07:46:17;;;;;;;;;;;;;;;23.09;61.69;100342.01;1711081;82;21007;-79
2021/07/23 07:48:43;;;;;;;;;;;;;;;23.10;61.22;100342.28;1707002;83;20202;-80
2021/07/23 07:51:10;;;;;;;;;;;;;;;23.24;61.61;100331.58;1710643;82;20175;-82
2021/07/23 07:53:36;;;;;;;;;;;;;;;23.32;62.23;100330.91;1710983;82;20187;-78
2021/07/23 07:56:04;;;;;;;;;;;;;;;23.35;62.17;100329.09;1706379;82;20839;-85
2021/07/23 07:58:32;;;;;;;;;;;;;;;23.42;62.49;100332.48;1708750;82;21115;-81
2021/07/23 08:00:59;;;;;;;;;;;;;;;23.37;62.42;100333.70;1709930;82;20150;-80
2021/07/23 08:03:26;;;;;;;;;;;;;;;23.29;59.33;100339.77;1705910;82;20146;-81
2021/07/23 08:05:57;;;;;;;;;;;;;;;23.33;59.25;100336.59;1713446;82;20167;-88
2021/07/23 08:08:21;;;;;;;;;;;;;;;23.21;59.27;100337.44;1707554;82;20216;-89
2021/07/23 08:10:49;;;;;;;;;;;;;;;23.09;58.33;100329.88;1702570;83;22547;-81
2021/07/23 08:13:16;;;;;;;;;;;;;;;23.20;58.42;100331.74;1708415;82;20169;-81
2021/07/23 08:15:44;;;;;;;;;;;;;;;23.23;58.40;100332.63;1713236;82;20153;-83
2021/07/23 08:18:09;;;;;;;;;;;;;;;23.20;58.33;100334.44;1716861;82;20758;-86
2021/07/23 08:20:37;;;;;;;;;;;;;;;23.06;56.33;100334.36;1717143;82;20125;-81
2021/07/23 08:23:04;;;;;;;;;;;;;;;23.24;56.49;100341.01;1707154;82;21361;-81
2021/07/23 08:25:30;;;;;;;;;;;;;;;23.34;57.04;100337.70;1712934;82;20143;-85
2021/07/23 08:27:55;;;;;;;;;;;;;;;23.36;56.13;100336.13;1708601;82;20154;-83
2021/07/23 08:30:21;;;;;;;;;;;;;;;23.39;55.56;100335.11;1712692;82;20164;-79
2021/07/23 08:32:48;;;;;;;;;;;;;;;23.40;55.06;100330.53;1707994;82;20553;-80
2021/07/23 08:35:16;;;;;;;;;;;;;;;23.38;56.31;100332.66;1696329;82;22019;-81
2021/07/23 08:37:41;;;;;;;;;;;;;;;23.52;56.08;100332.68;1708544;82;20126;-79
2021/07/23 08:40:08;;;;;;;;;;;;;;;23.61;54.76;100328.56;1704488;82;20168;-81
2021/07/23 08:42:35;;;;;;;;;;;;;;;23.66;53.88;100328.69;1713507;82;20174;-79
2021/07/23 08:45:03;;;;;;;;;;;;;;;23.46;53.00;100327.73;1700963;82;20263;-80
2021/07/23 08:47:31;;;;;;;;;;;;;;;23.66;53.34;100327.34;1714813;82;21124;-82
2021/07/23 08:49:57;;;;;;;;;;;;;;;23.73;53.84;100325.03;1714148;82;20163;-80
2021/07/23 08:52:45;;;;;;;;;;;;;;;23.78;53.89;100321.08;1681040;83;20213;-78
2021/07/23 08:55:12;;;;;;;;;;;;;;;23.86;53.33;100316.67;1714502;82;20496;-79
2021/07/23 08:57:38;;;;;;;;;;;;;;;23.89;52.73;100313.50;1710407;82;20463;-86
2021/07/23 09:00:10;;;;;;;;;;;;;;;23.96;52.61;100315.53;1709179;82;22121;-81
2021/07/23 09:03:00;;;;;;;;;;;;;;;23.91;50.62;100324.89;1708739;82;20217;-80
2021/07/23 09:05:30;;;;;;;;;;;;;;;23.89;50.47;100317.55;1707391;82;20167;-79
2021/07/23 09:08:00;;;;;;;;;;;;;;;24.03;51.06;100315.92;1715724;82;20170;-78
2021/07/23 09:10:29;;;;;;;;;;;;;;;24.14;50.85;100309.64;1708487;82;20191;-81
2021/07/23 09:13:00;;;;;;;;;;;;;;;24.26;51.04;100311.75;1706825;82;21162;-76
2021/07/23 09:15:28;;;;;;;;;;;;;;;24.29;51.15;100304.52;1705108;82;20107;-78
2021/07/23 09:17:54;;;;;;;;;;;;;;;24.47;50.96;100313.44;1713144;83;20131;-78
2021/07/23 09:20:23;;;;;;;;;;;;;;;24.59;50.80;100314.22;1714580;82;20157;-81
2021/07/23 09:22:59;;;;;;;;;;;;;;;24.62;49.54;100319.13;1714325;82;20207;-79
2021/07/23 09:25:36;;;;;;;;;;;;;;;24.47;49.17;100319.68;1714704;82;21275;-79
2021/07/23 09:28:01;;;;;;;;;;;;;;;24.47;48.91;100313.44;1705793;82;20301;-82
2021/07/23 09:30:42;;;;;;;;;;;;;;;24.55;48.17;100315.76;1699826;82;21282;-79
2021/07/23 09:33:08;;;;;;;;;;;;;;;24.63;48.46;100318.07;1703637;82;20152;-80
2021/07/23 09:35:34;;;;;;;;;;;;;;;24.83;48.84;100315.42;1714973;82;20167;-80
2021/07/23 09:37:59;;;;;;;;;;;;;;;24.93;48.57;100313.39;1709788;82;21063;-81
2021/07/23 09:40:25;;;;;;;;;;;;;;;24.88;48.46;100306.03;1701858;82;20181;-79
2021/07/23 09:42:57;;;;;;;;;;;;;;;24.99;48.49;100302.41;1702014;82;20462;-78
2021/07/23 09:45:28;;;;;;;;;;;;;;;25.02;49.32;100301.91;1701664;82;20195;-79
2021/07/23 09:47:57;;;;;;;;;;;;;;;25.06;48.77;100300.36;1708133;82;20662;-79
2021/07/23 09:50:23;;;;;;;;;;;;;;;24.92;48.28;100303.09;1700591;82;22069;-80
2021/07/23 09:52:49;;;;;;;;;;;;;;;25.12;48.67;100299.06;1704187;82;20178;-83
2021/07/23 09:55:15;;;;;;;;;;;;;;;25.03;47.68;100302.20;1708320;82;20142;-76
2021/07/23 09:57:40;;;;;;;;;;;;;;;25.13;48.13;100299.36;1705108;82;20669;-79
2021/07/23 10:00:10;;;;;;;;;;;;;;;25.15;47.96;100298.56;1680185;82;20193;-82
2021/07/23 10:02:34;;;;;;;;;;;;;;;25.14;48.02;100303.68;1709212;82;20693;-77
2021/07/23 10:05:09;;;;;;;;;;;;;;;25.15;48.06;100299.92;1716570;82;20131;-78
2021/07/23 10:07:40;;;;;;;;;;;;;;;25.27;48.39;100300.63;1703144;82;20115;-79
2021/07/23 10:10:07;;;;;;;;;;;;;;;25.30;48.58;100297.45;1710269;82;20727;-79
2021/07/23 10:12:33;;;;;;;;;;;;;;;25.23;48.83;100288.67;1701345;82;20223;-77
2021/07/23 10:14:59;;;;;;;;;;;;;;;24.99;49.48;100294.30;1679184;83;21107;-80
2021/07/23 10:17:24;;;;;;;;;;;;;;;25.08;49.26;100298.76;1708161;82;20168;-80
2021/07/23 10:19:55;;;;;;;;;;;;;;;25.01;49.66;100290.81;1703987;82;20194;-79
2021/07/23 10:22:17;;;;;;;;;;;;;;;25.08;49.37;100286.59;1710259;82;20146;-77
2021/07/23 10:24:43;;;;;;;;;;;;;;;24.99;48.82;100284.84;1704209;82;20153;-86
2021/07/23 10:27:11;;;;;;;;;;;;;;;25.11;48.98;100278.50;1708200;83;21882;-83
2021/07/23 10:29:48;;;;;;;;;;;;;;;25.24;48.83;100283.56;1692298;83;20250;-78
2021/07/23 10:32:29;;;;;;;;;;;;;;;25.23;49.29;100285.97;1679943;83;33208;-80
2021/07/23 10:34:56;;;;;;;;;;;;;;;25.12;49.93;100279.61;1705670;82;20675;-80
2021/07/23 10:37:34;;;;;;;;;;;;;;;25.22;50.05;100274.89;1700156;82;20521;-79
2021/07/23 10:40:12;;;;;;;;;;;;;;;25.33;50.20;100268.57;1707432;82;21144;-80
2021/07/23 10:42:42;;;;;;;;;;;;;;;25.36;50.25;100277.53;1700431;83;20199;-83
2021/07/23 10:45:09;;;;;;;;;;;;;;;25.49;49.92;100267.41;1708066;83;20170;-82
2021/07/23 10:47:47;;;;;;;;;;;;;;;25.57;49.56;100272.36;1707477;82;20219;-80
2021/07/23 10:50:16;;;;;;;;;;;;;;;25.63;49.19;100259.98;1702892;83;20205;-85
2021/07/23 10:52:42;;;;;;;;;;;;;;;25.53;47.91;100266.64;1693797;82;21126;-79
2021/07/23 10:55:09;;;;;;;;;;;;;;;25.51;48.29;100266.61;1705121;82;20186;-78
2021/07/23 10:57:35;;;;;;;;;;;;;;;25.56;48.35;100269.39;1702668;82;20139;-80
2021/07/23 11:00:00;;;;;;;;;;;;;;;25.48;48.86;100266.59;1703405;82;20672;-79
2021/07/23 11:02:33;;;;;;;;;;;;;;;25.61;48.08;100269.44;1719009;82;20150;-84
2021/07/23 11:05:09;;;;;;;;;;;;;;;25.75;47.54;100253.09;1695414;82;20577;-78
2021/07/23 11:07:35;;;;;;;;;;;;;;;25.86;47.93;100254.01;1703566;82;20626;-80
2021/07/23 11:10:00;;;;;;;;;;;;;;;25.68;46.40;100253.00;1701413;82;20468;-78
2021/07/23 11:12:28;;;;;;;;;;;;;;;25.70;45.62;100246.28;1715519;82;20121;-79
2021/07/23 11:14:57;;;;;;;;;;;;;;;25.88;45.45;100251.05;1712120;81;20439;-85
2021/07/23 11:17:23;;;;;;;;;;;;;;;25.76;45.45;100246.62;1714354;82;21195;-78
2021/07/23 11:19:49;;;;;;;;;;;;;;;25.68;45.35;100247.05;1714671;82;20240;-77
2021/07/23 11:22:26;;;;;;;;;;;;;;;25.69;44.60;100240.58;1712943;82;20171;-79
2021/07/23 11:24:56;;;;;;;;;;;;;;;25.77;44.65;100245.52;1715290;82;20157;-79
2021/07/23 11:27:25;;;;;;;;;;;;;;;25.54;45.93;100240.41;1715864;82;20185;-88
2021/07/23 11:29:52;;;;;;;;;;;;;;;25.65;46.26;100239.45;1711513;82;21902;-78
2021/07/23 11:32:18;;;;;;;;;;;;;;;25.70;45.84;100236.81;1710237;82;20172;-80
2021/07/23 11:34:44;;;;;;;;;;;;;;;25.75;45.60;100241.46;1707735;82;20172;-79
2021/07/23 11:37:26;;;;;;;;;;;;;;;25.63;46.37;100236.99;1712782;82;20242;-79
2021/07/23 11:39:55;;;;;;;;;;;;;;;25.35;47.25;100242.09;1714499;83;20146;-79
2021/07/23 11:42:23;;;;;;;;;;;;;;;25.46;47.56;100238.17;1709434;82;22067;-78
2021/07/23 11:44:51;;;;;;;;;;;;;;;25.63;47.49;100232.12;1707230;82;20178;-83
2021/07/23 11:47:29;;;;;;;;;;;;;;;25.42;48.64;100241.92;1714544;82;20164;-80
2021/07/23 11:49:57;;;;;;;;;;;;;;;25.39;48.61;100232.42;1706152;82;20229;-86
2021/07/23 11:52:24;;;;;;;;;;;;;;;25.21;49.22;100240.81;1712025;82;20562;-80
2021/07/23 11:54:57;;;;;;;;;;;;;;;25.22;49.89;100239.75;1710250;82;22123;-83
2021/07/23 11:57:23;;;;;;;;;;;;;;;25.27;49.65;100235.75;1713730;82;20214;-82
2021/07/23 11:59:49;;;;;;;;;;;;;;;25.31;48.91;100231.52;1704759;82;20199;-81
2021/07/23 12:02:14;;;;;;;;;;;;;;;25.38;48.35;100232.67;1714750;82;20578;-80
2021/07/23 12:04:41;;;;;;;;;;;;;;;25.48;47.39;100242.27;1710183;82;20195;-80
2021/07/23 12:07:07;;;;;;;;;;;;;;;25.51;47.74;100235.00;1715739;82;21087;-80
2021/07/23 12:09:33;;;;;;;;;;;;;;;25.29;48.35;100233.64;1697905;82;20267;-80
2021/07/23 12:11:59;;;;;;;;;;;;;;;25.26;48.61;100235.46;1708373;82;20866;-80
2021/07/23 12:14:25;;;;;;;;;;;;;;;25.41;48.90;100234.33;1716864;82;20149;-79
2021/07/23 12:16:51;;;;;;;;;;;;;;;25.39;48.86;100231.61;1706541;83;20712;-79
2021/07/23 12:19:18;;;;;;;;;;;;;;;25.31;49.13;100236.09;1694364;83;21151;-83
2021/07/23 12:21:43;;;;;;;;;;;;;;;25.30;49.34;100237.18;1709506;82;20122;-79
2021/07/23 12:24:10;;;;;;;;;;;;;;;25.23;50.54;100233.27;1713821;82;20141;-82
2021/07/23 12:26:38;;;;;;;;;;;;;;;25.31;50.38;100238.28;1712453;82;20258;-81
2021/07/23 12:29:05;;;;;;;;;;;;;;;25.33;50.31;100242.89;1716745;82;20169;-79
2021/07/23 12:31:30;;;;;;;;;;;;;;;25.24;50.47;100240.31;1701176;82;20986;-79
2021/07/23 12:34:13;;;;;;;;;;;;;;;25.25;50.06;100237.36;1703587;83;20163;-82